createdAt,value
2022-12-27T00:00:05.631Z,14.48
2022-12-27T00:00:17.646Z,14.47
2022-12-27T00:00:29.644Z,14.48
2022-12-27T00:00:41.590Z,14.47
2022-12-27T00:00:52.617Z,14.47
2022-12-27T00:01:04.610Z,14.48
2022-12-27T00:01:15.569Z,14.47
2022-12-27T00:01:26.659Z,14.48
2022-12-27T00:01:38.665Z,14.47
2022-12-27T00:01:50.644Z,14.48
2022-12-27T00:02:02.615Z,14.47
2022-12-27T00:02:13.590Z,14.47
2022-12-27T00:02:25.614Z,14.48
2022-12-27T00:02:36.630Z,14.47
2022-12-27T00:02:48.628Z,14.45
2022-12-27T00:02:59.668Z,14.47
2022-12-27T00:03:10.638Z,14.48
2022-12-27T00:03:22.636Z,14.47
2022-12-27T00:03:33.603Z,14.47
2022-12-27T00:03:44.606Z,14.48
2022-12-27T00:03:55.572Z,14.45
2022-12-27T00:04:06.627Z,14.47
2022-12-27T00:04:17.622Z,14.47
2022-12-27T00:04:28.605Z,14.47
2022-12-27T00:04:39.593Z,14.47
2022-12-27T00:04:50.624Z,14.47
2022-12-27T00:05:02.593Z,14.45
2022-12-27T00:05:13.590Z,14.47
2022-12-27T00:05:24.576Z,14.47
2022-12-27T00:05:35.580Z,14.45
2022-12-27T00:05:46.558Z,14.45
2022-12-27T00:05:57.584Z,14.47
2022-12-27T00:06:08.589Z,14.45
2022-12-27T00:06:19.590Z,14.47
2022-12-27T00:06:30.680Z,14.47
2022-12-27T00:06:42.635Z,14.45
2022-12-27T00:06:54.606Z,14.47
2022-12-27T00:07:05.599Z,14.47
2022-12-27T00:07:16.593Z,14.45
2022-12-27T00:07:27.571Z,14.47
2022-12-27T00:07:39.419Z,14.47
2022-12-27T00:07:49.556Z,14.45
2022-12-27T00:08:00.577Z,14.45
2022-12-27T00:08:12.579Z,14.45
2022-12-27T00:08:23.607Z,14.45
2022-12-27T00:08:34.579Z,14.45
2022-12-27T00:08:45.618Z,14.45
2022-12-27T00:08:56.592Z,14.45
2022-12-27T00:09:07.587Z,14.45
2022-12-27T00:09:18.599Z,14.44
2022-12-27T00:09:29.606Z,14.45
2022-12-27T00:09:40.613Z,14.47
2022-12-27T00:09:52.603Z,14.47
2022-12-27T00:10:03.583Z,14.45
2022-12-27T00:10:14.584Z,14.45
2022-12-27T00:10:25.559Z,14.45
2022-12-27T00:10:36.571Z,14.45
2022-12-27T00:10:47.579Z,14.44
2022-12-27T00:10:59.406Z,14.45
2022-12-27T00:11:10.624Z,14.45
2022-12-27T00:11:21.628Z,14.45
2022-12-27T00:11:33.564Z,14.45
2022-12-27T00:11:44.574Z,14.45
2022-12-27T00:11:59.828Z,14.45
2022-12-27T00:12:06.573Z,14.45
2022-12-27T00:12:17.663Z,14.47
2022-12-27T00:12:29.614Z,14.45
2022-12-27T00:12:40.606Z,14.44
2022-12-27T00:12:51.593Z,14.45
2022-12-27T00:13:02.581Z,14.45
2022-12-27T00:13:13.585Z,14.44
2022-12-27T00:13:24.592Z,14.44
2022-12-27T00:13:35.559Z,14.45
2022-12-27T00:13:46.652Z,14.45
2022-12-27T00:13:58.596Z,14.45
2022-12-27T00:14:09.589Z,14.45
2022-12-27T00:14:20.576Z,14.44
2022-12-27T00:14:31.591Z,14.45
2022-12-27T00:14:42.592Z,14.45
2022-12-27T00:14:53.606Z,14.45
2022-12-27T00:15:04.610Z,14.44
2022-12-27T00:15:16.589Z,14.45
2022-12-27T00:15:27.563Z,14.45
2022-12-27T00:15:38.633Z,14.45
2022-12-27T00:15:50.584Z,14.44
2022-12-27T00:16:01.616Z,14.45
2022-12-27T00:16:12.619Z,14.45
2022-12-27T00:16:23.642Z,14.44
2022-12-27T00:16:35.678Z,14.45
2022-12-27T00:16:46.617Z,14.45
2022-12-27T00:16:57.598Z,14.45
2022-12-27T00:17:08.548Z,14.45
2022-12-27T00:18:26.166Z,14.43
2022-12-27T00:18:36.813Z,14.44
2022-12-27T00:18:48.766Z,14.45
2022-12-27T00:18:59.762Z,14.43
2022-12-27T00:19:10.744Z,14.44
2022-12-27T00:19:21.738Z,14.44
2022-12-27T00:19:32.726Z,14.43
2022-12-27T00:19:43.748Z,14.44
2022-12-27T00:20:11.887Z,14.44
2022-12-27T00:20:12.737Z,14.43
2022-12-27T00:20:23.744Z,14.44
2022-12-27T00:20:42.048Z,14.43
2022-12-27T00:20:45.796Z,14.44
2022-12-27T00:20:57.758Z,14.43
2022-12-27T00:21:08.734Z,14.44
2022-12-27T00:21:19.797Z,14.43
2022-12-27T00:21:31.713Z,14.45
2022-12-27T00:21:42.789Z,14.44
2022-12-27T00:25:24.734Z,14.40
2022-12-27T00:25:35.759Z,14.44
2022-12-27T00:25:46.752Z,14.43
2022-12-27T00:25:57.734Z,14.43
2022-12-27T00:26:08.751Z,14.41
2022-12-27T00:26:19.759Z,14.41
2022-12-27T00:26:30.755Z,14.43
2022-12-27T00:26:41.847Z,14.41
2022-12-27T00:26:53.737Z,14.40
2022-12-27T00:27:04.744Z,14.43
2022-12-27T00:27:15.738Z,14.41
2022-12-27T00:27:26.714Z,14.43
2022-12-27T00:27:37.802Z,14.43
2022-12-27T00:27:49.754Z,14.43
2022-12-27T00:28:00.757Z,14.41
2022-12-27T00:28:11.758Z,14.43
2022-12-27T00:28:22.753Z,14.41
2022-12-27T00:28:33.747Z,14.41
2022-12-27T00:28:44.740Z,14.40
2022-12-27T00:28:55.715Z,14.40
2022-12-27T00:29:06.727Z,14.41
2022-12-27T00:29:17.801Z,14.40
2022-12-27T00:29:29.757Z,14.41
2022-12-27T00:29:40.754Z,14.41
2022-12-27T00:29:51.738Z,14.41
2022-12-27T00:30:02.766Z,14.40
2022-12-27T00:30:13.761Z,14.41
2022-12-27T00:30:24.779Z,14.40
2022-12-27T00:30:36.736Z,14.41
2022-12-27T00:30:47.707Z,14.41
2022-12-27T00:30:58.725Z,14.41
2022-12-27T00:31:10.641Z,14.41
2022-12-27T00:31:20.813Z,14.40
2022-12-27T00:31:31.847Z,14.40
2022-12-27T00:31:42.824Z,14.40
2022-12-27T00:31:54.817Z,14.41
2022-12-27T00:32:05.774Z,14.41
2022-12-27T00:32:16.757Z,14.41
2022-12-27T00:32:27.747Z,14.40
2022-12-27T00:32:38.756Z,14.41
2022-12-27T00:32:49.734Z,14.40
2022-12-27T00:33:00.755Z,14.40
2022-12-27T00:33:11.742Z,14.41
2022-12-27T00:33:22.713Z,14.41
2022-12-27T00:33:33.731Z,14.41
2022-12-27T00:33:44.729Z,14.43
2022-12-27T00:33:55.717Z,14.41
2022-12-27T00:34:06.703Z,14.40
2022-12-27T00:34:17.798Z,14.40
2022-12-27T00:34:29.764Z,14.41
2022-12-27T00:34:40.743Z,14.40
2022-12-27T00:34:51.761Z,14.41
2022-12-27T00:35:02.779Z,14.40
2022-12-27T00:35:14.722Z,14.40
2022-12-27T00:35:25.744Z,14.40
2022-12-27T00:35:36.755Z,14.40
2022-12-27T00:35:47.741Z,14.40
2022-12-27T00:35:58.764Z,14.40
2022-12-27T00:36:09.756Z,14.40
2022-12-27T00:36:20.793Z,14.41
2022-12-27T00:36:32.735Z,14.40
2022-12-27T00:36:43.715Z,14.37
2022-12-27T00:36:54.792Z,14.40
2022-12-27T00:37:06.747Z,14.40
2022-12-27T00:37:17.755Z,14.37
2022-12-27T00:37:28.756Z,14.40
2022-12-27T00:37:39.753Z,14.40
2022-12-27T00:37:50.737Z,14.40
2022-12-27T00:38:01.713Z,14.37
2022-12-27T00:38:12.725Z,14.37
2022-12-27T00:38:23.722Z,14.37
2022-12-27T00:38:34.856Z,14.37
2022-12-27T00:38:46.781Z,14.40
2022-12-27T00:38:58.752Z,14.40
2022-12-27T00:39:09.762Z,14.37
2022-12-27T00:39:20.753Z,14.40
2022-12-27T00:39:31.764Z,14.37
2022-12-27T00:39:42.776Z,14.40
2022-12-27T00:39:53.759Z,14.37
2022-12-27T00:40:05.739Z,14.37
2022-12-27T00:40:16.748Z,14.40
2022-12-27T00:40:27.767Z,14.40
2022-12-27T00:40:38.766Z,14.40
2022-12-27T00:40:49.772Z,14.37
2022-12-27T00:41:00.755Z,14.41
2022-12-27T00:41:11.756Z,14.37
2022-12-27T00:41:22.751Z,14.40
2022-12-27T00:41:33.754Z,14.37
2022-12-27T00:41:44.716Z,14.40
2022-12-27T00:41:55.724Z,14.37
2022-12-27T00:42:06.751Z,14.37
2022-12-27T00:42:17.742Z,14.37
2022-12-27T00:42:28.735Z,14.40
2022-12-27T00:42:39.761Z,14.37
2022-12-27T00:42:50.754Z,14.37
2022-12-27T00:43:01.734Z,14.40
2022-12-27T00:43:12.756Z,14.40
2022-12-27T00:43:23.749Z,14.40
2022-12-27T00:43:35.738Z,14.40
2022-12-27T00:43:46.716Z,14.36
2022-12-27T00:43:57.722Z,14.37
2022-12-27T00:44:08.721Z,14.37
2022-12-27T00:44:19.824Z,14.37
2022-12-27T00:44:31.782Z,14.37
2022-12-27T00:44:42.781Z,14.36
2022-12-27T00:44:54.748Z,14.37
2022-12-27T00:45:05.774Z,14.40
2022-12-27T00:45:16.741Z,14.37
2022-12-27T00:45:27.777Z,14.37
2022-12-27T00:45:38.783Z,14.37
2022-12-27T00:45:49.789Z,14.37
2022-12-27T00:46:01.869Z,14.40
2022-12-27T00:46:13.828Z,14.37
2022-12-27T00:46:25.835Z,14.37
2022-12-27T00:46:37.781Z,14.37
2022-12-27T00:46:49.753Z,14.36
2022-12-27T00:47:00.733Z,14.37
2022-12-27T00:47:11.726Z,14.36
2022-12-27T00:47:22.720Z,14.37
2022-12-27T00:47:33.705Z,14.37
2022-12-27T00:47:44.720Z,14.37
2022-12-27T00:47:55.737Z,14.37
2022-12-27T00:48:06.723Z,14.37
2022-12-27T00:48:17.700Z,14.36
2022-12-27T00:48:28.779Z,14.36
2022-12-27T00:48:39.769Z,14.40
2022-12-27T00:48:51.749Z,14.37
2022-12-27T00:49:02.766Z,14.37
2022-12-27T00:49:13.743Z,14.36
2022-12-27T00:49:24.730Z,14.37
2022-12-27T00:49:35.708Z,14.37
2022-12-27T00:49:46.702Z,14.36
2022-12-27T00:49:57.713Z,14.37
2022-12-27T00:50:08.760Z,14.37
2022-12-27T00:50:19.739Z,14.37
2022-12-27T00:50:30.715Z,14.37
2022-12-27T00:50:41.713Z,14.37
2022-12-27T00:50:52.801Z,14.37
2022-12-27T00:51:04.762Z,14.36
2022-12-27T00:51:15.777Z,14.37
2022-12-27T00:51:27.726Z,14.37
2022-12-27T00:51:38.717Z,14.37
2022-12-27T00:51:49.724Z,14.37
2022-12-27T00:52:00.784Z,14.40
2022-12-27T00:52:12.751Z,14.37
2022-12-27T00:52:23.772Z,14.36
2022-12-27T00:52:35.730Z,14.36
2022-12-27T00:52:46.721Z,14.37
2022-12-27T00:52:57.723Z,14.35
2022-12-27T00:53:08.813Z,14.36
2022-12-27T00:53:20.751Z,14.36
2022-12-27T00:53:31.787Z,14.36
2022-12-27T00:53:43.735Z,14.36
2022-12-27T00:53:54.735Z,14.37
2022-12-27T00:54:05.726Z,14.37
2022-12-27T00:54:16.734Z,14.36
2022-12-27T00:54:27.829Z,14.37
2022-12-27T00:54:39.793Z,14.37
2022-12-27T00:54:51.741Z,14.36
2022-12-27T00:55:02.686Z,14.37
2022-12-27T00:55:13.819Z,14.36
2022-12-27T00:55:25.805Z,14.37
2022-12-27T00:55:37.765Z,14.37
2022-12-27T00:55:48.775Z,14.37
2022-12-27T00:56:08.630Z,14.37
2022-12-27T00:56:11.712Z,14.37
2022-12-27T00:56:22.783Z,14.37
2022-12-27T00:56:33.757Z,14.36
2022-12-27T00:56:44.738Z,14.40
2022-12-27T00:56:55.712Z,14.40
2022-12-27T00:57:07.730Z,14.40
2022-12-27T00:57:18.716Z,14.40
2022-12-27T00:57:29.764Z,14.40
2022-12-27T00:57:40.748Z,14.37
2022-12-27T00:57:51.715Z,14.37
2022-12-27T00:58:02.787Z,14.40
2022-12-27T00:58:13.758Z,14.37
2022-12-27T00:58:24.719Z,14.37
2022-12-27T00:58:40.550Z,14.37
2022-12-27T00:58:48.751Z,14.37
2022-12-27T00:58:59.744Z,14.40
2022-12-27T00:59:10.709Z,14.37
2022-12-27T00:59:21.780Z,14.40
2022-12-27T00:59:33.730Z,14.37
2022-12-27T00:59:44.710Z,14.37
2022-12-27T00:59:55.773Z,14.37
2022-12-27T01:00:10.340Z,14.37
2022-12-27T01:00:18.758Z,14.37
2022-12-27T01:00:29.728Z,14.37
2022-12-27T01:00:41.939Z,14.37
2022-12-27T01:00:53.787Z,14.40
2022-12-27T01:01:05.781Z,14.40
2022-12-27T01:01:17.926Z,14.37
2022-12-27T01:01:29.902Z,14.37
2022-12-27T01:01:40.943Z,14.37
2022-12-27T01:01:52.859Z,14.40
2022-12-27T01:02:03.864Z,14.37
2022-12-27T01:02:14.834Z,14.36
2022-12-27T01:02:25.706Z,14.37
2022-12-27T01:02:36.726Z,14.40
2022-12-27T01:02:47.788Z,14.37
2022-12-27T01:02:59.738Z,14.40
2022-12-27T01:03:10.807Z,14.37
2022-12-27T01:03:21.847Z,14.37
2022-12-27T01:03:32.790Z,14.36
2022-12-27T01:03:43.781Z,14.37
2022-12-27T01:03:55.808Z,14.37
2022-12-27T01:04:06.742Z,14.37
2022-12-27T01:04:17.797Z,14.36
2022-12-27T01:04:28.755Z,14.37
2022-12-27T01:04:39.737Z,14.37
2022-12-27T01:04:50.704Z,14.37
2022-12-27T01:05:01.779Z,14.37
2022-12-27T01:05:12.733Z,14.37
2022-12-27T01:05:23.803Z,14.37
2022-12-27T01:05:35.754Z,14.40
2022-12-27T01:05:46.727Z,14.37
2022-12-27T01:05:57.688Z,14.37
2022-12-27T01:06:08.804Z,14.37
2022-12-27T01:06:20.732Z,14.40
2022-12-27T01:06:31.800Z,14.37
2022-12-27T01:06:43.717Z,14.37
2022-12-27T01:06:54.718Z,14.37
2022-12-27T01:07:05.709Z,14.37
2022-12-27T01:07:16.789Z,14.37
2022-12-27T01:07:28.706Z,14.36
2022-12-27T01:07:39.774Z,14.37
2022-12-27T01:07:50.746Z,14.37
2022-12-27T01:08:01.717Z,14.37
2022-12-27T01:08:12.804Z,14.37
2022-12-27T01:08:24.731Z,14.37
2022-12-27T01:08:35.791Z,14.37
2022-12-27T01:08:47.729Z,14.37
2022-12-27T01:08:58.701Z,14.37
2022-12-27T01:09:09.783Z,14.37
2022-12-27T01:09:20.740Z,14.36
2022-12-27T01:09:32.763Z,14.37
2022-12-27T01:09:43.740Z,14.40
2022-12-27T01:09:55.769Z,14.37
2022-12-27T01:10:06.757Z,14.37
2022-12-27T01:10:17.736Z,14.37
2022-12-27T01:10:28.706Z,14.37
2022-12-27T01:10:39.776Z,14.37
2022-12-27T01:10:50.749Z,14.36
2022-12-27T01:11:01.721Z,14.37
2022-12-27T01:11:12.791Z,14.37
2022-12-27T01:11:23.766Z,14.37
2022-12-27T01:11:34.747Z,14.37
2022-12-27T01:11:45.732Z,14.37
2022-12-27T01:11:57.745Z,14.40
2022-12-27T01:12:09.778Z,14.40
2022-12-27T01:12:21.746Z,14.36
2022-12-27T01:12:32.821Z,14.36
2022-12-27T01:12:44.748Z,14.36
2022-12-27T01:12:55.736Z,14.37
2022-12-27T01:13:06.729Z,14.36
2022-12-27T01:13:17.712Z,14.37
2022-12-27T01:13:42.652Z,14.36
2022-12-27T01:13:43.748Z,14.35
2022-12-27T01:13:54.727Z,14.36
2022-12-27T01:14:05.811Z,14.36
2022-12-27T01:14:16.810Z,14.36
2022-12-27T01:14:27.784Z,14.36
2022-12-27T01:14:39.739Z,14.37
2022-12-27T01:14:50.726Z,14.37
2022-12-27T01:15:01.728Z,14.36
2022-12-27T01:15:12.733Z,14.37
2022-12-27T01:15:23.718Z,14.37
2022-12-27T01:15:34.749Z,14.36
2022-12-27T01:15:45.714Z,14.36
2022-12-27T01:15:56.852Z,14.37
2022-12-27T01:16:08.919Z,14.36
2022-12-27T01:16:20.828Z,14.36
2022-12-27T01:16:32.898Z,14.37
2022-12-27T01:16:43.809Z,14.37
2022-12-27T01:16:55.789Z,14.37
2022-12-27T01:17:06.778Z,14.36
2022-12-27T01:17:18.763Z,14.36
2022-12-27T01:17:29.728Z,14.36
2022-12-27T01:17:40.735Z,14.37
2022-12-27T01:17:51.715Z,14.37
2022-12-27T01:18:02.728Z,14.36
2022-12-27T01:18:13.805Z,14.37
2022-12-27T01:18:25.744Z,14.37
2022-12-27T01:18:36.759Z,14.37
2022-12-27T01:18:48.754Z,14.37
2022-12-27T01:18:59.753Z,14.36
2022-12-27T01:19:10.737Z,14.37
2022-12-27T01:19:21.731Z,14.36
2022-12-27T01:19:32.828Z,14.37
2022-12-27T01:19:44.796Z,14.37
2022-12-27T01:19:56.747Z,14.37
2022-12-27T01:20:07.747Z,14.36
2022-12-27T01:20:18.747Z,14.37
2022-12-27T01:20:29.741Z,14.37
2022-12-27T01:20:40.815Z,14.37
2022-12-27T01:20:52.800Z,14.40
2022-12-27T01:21:03.790Z,14.37
2022-12-27T01:21:15.734Z,14.37
2022-12-27T01:21:26.784Z,14.36
2022-12-27T01:21:38.765Z,14.36
2022-12-27T01:21:49.731Z,14.36
2022-12-27T01:22:00.746Z,14.37
2022-12-27T01:22:11.764Z,14.37
2022-12-27T01:22:22.798Z,14.37
2022-12-27T01:22:34.756Z,14.37
2022-12-27T01:22:45.760Z,14.37
2022-12-27T01:22:56.794Z,14.37
2022-12-27T01:23:07.769Z,14.37
2022-12-27T01:23:18.778Z,14.36
2022-12-27T01:23:30.768Z,14.37
2022-12-27T01:23:41.766Z,14.37
2022-12-27T01:23:52.727Z,14.36
2022-12-27T01:24:03.768Z,14.37
2022-12-27T01:24:14.779Z,14.36
2022-12-27T01:24:25.761Z,14.37
2022-12-27T01:24:36.788Z,14.37
2022-12-27T01:24:47.794Z,14.36
2022-12-27T01:24:59.753Z,14.37
2022-12-27T01:25:10.753Z,14.37
2022-12-27T01:25:21.770Z,14.37
2022-12-27T01:25:32.753Z,14.36
2022-12-27T01:25:43.746Z,14.37
2022-12-27T01:25:54.783Z,14.37
2022-12-27T01:26:06.765Z,14.36
2022-12-27T01:26:17.764Z,14.37
2022-12-27T01:26:29.761Z,14.37
2022-12-27T01:26:40.752Z,14.37
2022-12-27T01:26:51.753Z,14.37
2022-12-27T01:27:03.652Z,14.37
2022-12-27T01:27:13.757Z,14.37
2022-12-27T01:27:24.765Z,14.36
2022-12-27T01:27:35.744Z,14.37
2022-12-27T01:27:46.736Z,14.36
2022-12-27T01:27:57.723Z,14.36
2022-12-27T01:28:08.823Z,14.37
2022-12-27T01:28:20.756Z,14.36
2022-12-27T01:28:31.767Z,14.36
2022-12-27T01:28:42.777Z,14.37
2022-12-27T01:28:53.775Z,14.36
2022-12-27T01:29:04.764Z,14.36
2022-12-27T01:29:15.735Z,14.37
2022-12-27T01:29:26.754Z,14.36
2022-12-27T01:29:37.762Z,14.37
2022-12-27T01:29:48.768Z,14.36
2022-12-27T01:29:59.739Z,14.36
2022-12-27T01:30:10.728Z,14.36
2022-12-27T01:30:21.803Z,14.36
2022-12-27T01:30:33.727Z,14.36
2022-12-27T01:30:44.781Z,14.36
2022-12-27T01:30:55.768Z,14.37
2022-12-27T01:31:06.759Z,14.36
2022-12-27T01:31:17.755Z,14.36
2022-12-27T01:31:28.760Z,14.37
2022-12-27T01:31:39.801Z,14.36
2022-12-27T01:31:50.754Z,14.37
2022-12-27T01:32:01.769Z,14.35
2022-12-27T01:32:12.773Z,14.36
2022-12-27T01:32:23.748Z,14.37
2022-12-27T01:32:34.752Z,14.36
2022-12-27T01:32:45.732Z,14.37
2022-12-27T01:32:56.739Z,14.37
2022-12-27T01:33:07.741Z,14.36
2022-12-27T01:33:18.710Z,14.36
2022-12-27T01:33:29.716Z,14.36
2022-12-27T01:33:40.711Z,14.36
2022-12-27T01:33:51.714Z,14.36
2022-12-27T01:34:02.744Z,14.36
2022-12-27T01:34:13.719Z,14.35
2022-12-27T01:34:24.800Z,14.37
2022-12-27T01:34:36.760Z,14.37
2022-12-27T01:34:48.737Z,14.36
2022-12-27T01:34:59.746Z,14.36
2022-12-27T01:35:10.731Z,14.36
2022-12-27T01:35:21.794Z,14.36
2022-12-27T01:35:33.766Z,14.36
2022-12-27T01:35:45.736Z,14.37
2022-12-27T01:35:56.709Z,14.36
2022-12-27T01:36:07.795Z,14.36
2022-12-27T01:36:19.796Z,14.36
2022-12-27T01:36:30.787Z,14.35
2022-12-27T01:36:42.765Z,14.35
2022-12-27T01:36:53.730Z,14.36
2022-12-27T01:37:04.805Z,14.36
2022-12-27T01:37:16.768Z,14.35
2022-12-27T01:37:27.771Z,14.36
2022-12-27T01:37:38.765Z,14.36
2022-12-27T01:37:49.765Z,14.36
2022-12-27T01:38:00.744Z,14.35
2022-12-27T01:38:11.715Z,14.36
2022-12-27T01:38:22.825Z,14.35
2022-12-27T01:38:34.816Z,14.36
2022-12-27T01:38:46.775Z,14.35
2022-12-27T01:38:58.750Z,14.37
2022-12-27T01:39:09.743Z,14.35
2022-12-27T01:39:20.732Z,14.36
2022-12-27T01:39:49.215Z,14.35
2022-12-27T01:39:50.789Z,14.33
2022-12-27T01:40:02.781Z,14.35
2022-12-27T01:40:14.743Z,14.35
2022-12-27T01:40:25.730Z,14.33
2022-12-27T01:40:36.771Z,14.35
2022-12-27T01:40:47.752Z,14.35
2022-12-27T01:40:58.768Z,14.35
2022-12-27T01:41:09.747Z,14.36
2022-12-27T01:41:20.833Z,14.35
2022-12-27T01:41:32.787Z,14.35
2022-12-27T01:41:44.741Z,14.35
2022-12-27T01:41:55.774Z,14.33
2022-12-27T01:42:06.741Z,14.35
2022-12-27T01:42:17.728Z,14.35
2022-12-27T01:42:28.730Z,14.33
2022-12-27T01:42:39.751Z,14.33
2022-12-27T01:42:50.741Z,14.33
2022-12-27T01:43:01.733Z,14.35
2022-12-27T01:43:12.719Z,14.35
2022-12-27T01:43:23.728Z,14.33
2022-12-27T01:43:34.732Z,14.33
2022-12-27T01:43:45.829Z,14.35
2022-12-27T01:43:57.780Z,14.33
2022-12-27T01:44:08.766Z,14.35
2022-12-27T01:44:20.738Z,14.36
2022-12-27T01:44:31.755Z,14.35
2022-12-27T01:44:42.755Z,14.35
2022-12-27T01:44:53.776Z,14.35
2022-12-27T01:45:04.745Z,14.35
2022-12-27T01:45:15.739Z,14.35
2022-12-27T01:45:26.852Z,14.35
2022-12-27T01:45:38.749Z,14.36
2022-12-27T01:45:49.853Z,14.35
2022-12-27T01:46:01.875Z,14.35
2022-12-27T01:46:13.824Z,14.35
2022-12-27T01:46:24.741Z,14.35
2022-12-27T01:46:35.761Z,14.35
2022-12-27T01:46:46.743Z,14.35
2022-12-27T01:46:57.759Z,14.35
2022-12-27T01:47:08.771Z,14.36
2022-12-27T01:47:19.762Z,14.36
2022-12-27T01:47:30.760Z,14.33
2022-12-27T01:47:42.738Z,14.33
2022-12-27T01:47:53.746Z,14.33
2022-12-27T01:48:04.729Z,14.33
2022-12-27T01:48:15.759Z,14.35
2022-12-27T01:48:26.750Z,14.35
2022-12-27T01:48:37.767Z,14.33
2022-12-27T01:48:48.743Z,14.35
2022-12-27T01:48:59.777Z,14.35
2022-12-27T01:49:10.754Z,14.33
2022-12-27T01:49:21.780Z,14.35
2022-12-27T01:49:33.749Z,14.32
2022-12-27T01:49:44.739Z,14.33
2022-12-27T01:49:55.719Z,14.33
2022-12-27T01:50:06.769Z,14.32
2022-12-27T01:50:17.757Z,14.33
2022-12-27T01:50:28.789Z,14.33
2022-12-27T01:50:40.745Z,14.33
2022-12-27T01:50:51.741Z,14.35
2022-12-27T01:51:02.747Z,14.33
2022-12-27T01:51:13.747Z,14.33
2022-12-27T01:51:24.753Z,14.33
2022-12-27T01:51:35.761Z,14.32
2022-12-27T01:51:46.757Z,14.33
2022-12-27T01:51:57.717Z,14.32
2022-12-27T01:52:08.706Z,14.35
2022-12-27T01:52:19.712Z,14.33
2022-12-27T01:52:34.777Z,14.35
2022-12-27T01:52:42.787Z,14.35
2022-12-27T01:52:54.787Z,14.33
2022-12-27T01:53:06.747Z,14.32
2022-12-27T01:53:17.715Z,14.33
2022-12-27T01:53:28.716Z,14.33
2022-12-27T01:53:39.730Z,14.33
2022-12-27T01:53:50.741Z,14.33
2022-12-27T01:54:01.748Z,14.33
2022-12-27T01:54:12.717Z,14.33
2022-12-27T01:54:23.717Z,14.33
2022-12-27T01:54:34.799Z,14.33
2022-12-27T01:54:46.748Z,14.35
2022-12-27T01:54:57.755Z,14.33
2022-12-27T01:55:08.763Z,14.33
2022-12-27T01:55:19.777Z,14.33
2022-12-27T01:55:31.729Z,14.33
2022-12-27T01:55:42.760Z,14.33
2022-12-27T01:55:53.751Z,14.33
2022-12-27T01:56:04.748Z,14.35
2022-12-27T01:56:15.736Z,14.33
2022-12-27T01:56:26.732Z,14.33
2022-12-27T01:56:37.734Z,14.33
2022-12-27T01:56:48.701Z,14.33
2022-12-27T01:56:59.727Z,14.33
2022-12-27T01:57:10.786Z,14.33
2022-12-27T01:57:21.786Z,14.33
2022-12-27T01:57:33.736Z,14.32
2022-12-27T01:57:44.793Z,14.32
2022-12-27T01:57:56.779Z,14.33
2022-12-27T01:58:08.734Z,14.33
2022-12-27T01:58:19.716Z,14.35
2022-12-27T01:58:30.755Z,14.33
2022-12-27T01:58:41.749Z,14.32
2022-12-27T01:58:52.723Z,14.32
2022-12-27T01:59:03.737Z,14.33
2022-12-27T01:59:14.738Z,14.33
2022-12-27T01:59:25.717Z,14.35
2022-12-27T01:59:36.722Z,14.33
2022-12-27T01:59:47.712Z,14.33
2022-12-27T01:59:58.777Z,14.33
2022-12-27T02:00:10.746Z,14.33
2022-12-27T02:00:21.731Z,14.33
2022-12-27T02:00:32.715Z,14.33
2022-12-27T02:00:43.727Z,14.35
2022-12-27T02:00:54.823Z,14.33
2022-12-27T02:01:06.776Z,14.33
2022-12-27T02:01:17.875Z,14.32
2022-12-27T02:01:29.799Z,14.33
2022-12-27T02:01:40.902Z,14.32
2022-12-27T02:01:52.829Z,14.33
2022-12-27T02:02:03.911Z,14.33
2022-12-27T02:02:14.929Z,14.33
2022-12-27T02:02:25.785Z,14.33
2022-12-27T02:02:36.866Z,14.33
2022-12-27T02:02:47.864Z,14.35
2022-12-27T02:02:58.759Z,14.33
2022-12-27T02:03:09.757Z,14.32
2022-12-27T02:03:20.808Z,14.32
2022-12-27T02:03:32.749Z,14.33
2022-12-27T02:03:43.770Z,14.35
2022-12-27T02:03:55.746Z,14.35
2022-12-27T02:04:06.746Z,14.33
2022-12-27T02:04:17.733Z,14.33
2022-12-27T02:04:28.717Z,14.32
2022-12-27T02:04:39.735Z,14.33
2022-12-27T02:04:50.718Z,14.33
2022-12-27T02:05:01.729Z,14.33
2022-12-27T02:05:12.729Z,14.32
2022-12-27T02:05:23.721Z,14.35
2022-12-27T02:05:34.753Z,14.33
2022-12-27T02:05:45.741Z,14.35
2022-12-27T02:05:56.740Z,14.35
2022-12-27T02:06:07.725Z,14.33
2022-12-27T02:06:18.756Z,14.33
2022-12-27T02:06:29.739Z,14.33
2022-12-27T02:06:40.725Z,14.33
2022-12-27T02:06:51.733Z,14.33
2022-12-27T02:07:02.723Z,14.32
2022-12-27T02:07:13.743Z,14.32
2022-12-27T02:07:24.781Z,14.33
2022-12-27T02:07:35.750Z,14.33
2022-12-27T02:07:46.741Z,14.32
2022-12-27T02:07:57.760Z,14.33
2022-12-27T02:08:09.736Z,14.33
2022-12-27T02:08:20.723Z,14.33
2022-12-27T02:08:31.819Z,14.33
2022-12-27T02:08:43.822Z,14.33
2022-12-27T02:08:55.780Z,14.33
2022-12-27T02:09:07.756Z,14.33
2022-12-27T02:09:18.768Z,14.33
2022-12-27T02:09:29.752Z,14.33
2022-12-27T02:09:40.739Z,14.32
2022-12-27T02:09:51.712Z,14.33
2022-12-27T02:10:02.733Z,14.33
2022-12-27T02:10:13.742Z,14.35
2022-12-27T02:10:24.715Z,14.33
2022-12-27T02:10:35.729Z,14.33
2022-12-27T02:10:46.715Z,14.33
2022-12-27T02:10:57.715Z,14.33
2022-12-27T02:11:08.822Z,14.33
2022-12-27T02:11:20.778Z,14.35
2022-12-27T02:11:32.739Z,14.33
2022-12-27T02:11:43.734Z,14.33
2022-12-27T02:11:54.729Z,14.33
2022-12-27T02:12:05.742Z,14.32
2022-12-27T02:12:16.728Z,14.33
2022-12-27T02:12:27.797Z,14.35
2022-12-27T02:12:38.769Z,14.33
2022-12-27T02:12:50.738Z,14.33
2022-12-27T02:13:01.726Z,14.33
2022-12-27T02:13:12.751Z,14.35
2022-12-27T02:13:23.725Z,14.33
2022-12-27T02:13:34.751Z,14.33
2022-12-27T02:13:45.772Z,14.33
2022-12-27T02:13:56.766Z,14.35
2022-12-27T02:14:08.738Z,14.35
2022-12-27T02:14:23.479Z,14.33
2022-12-27T02:14:31.729Z,14.33
2022-12-27T02:14:41.813Z,14.33
2022-12-27T02:14:53.754Z,14.35
2022-12-27T02:15:04.741Z,14.33
2022-12-27T02:15:15.756Z,14.35
2022-12-27T02:15:27.744Z,14.32
2022-12-27T02:15:38.741Z,14.33
2022-12-27T02:15:50.758Z,14.33
2022-12-27T02:16:02.681Z,14.32
2022-12-27T02:16:12.716Z,14.35
2022-12-27T02:16:23.816Z,14.32
2022-12-27T02:16:35.838Z,14.32
2022-12-27T02:16:47.822Z,14.30
2022-12-27T02:16:59.804Z,14.33
2022-12-27T02:17:11.774Z,14.33
2022-12-27T02:17:23.752Z,14.32
2022-12-27T02:17:34.737Z,14.33
2022-12-27T02:17:45.732Z,14.33
2022-12-27T02:17:56.707Z,14.33
2022-12-27T02:18:07.724Z,14.33
2022-12-27T02:18:18.735Z,14.33
2022-12-27T02:18:29.721Z,14.32
2022-12-27T02:18:40.744Z,14.33
2022-12-27T02:18:51.765Z,14.32
2022-12-27T02:19:02.749Z,14.33
2022-12-27T02:19:13.728Z,14.33
2022-12-27T02:19:24.736Z,14.33
2022-12-27T02:19:35.742Z,14.32
2022-12-27T02:19:46.756Z,14.33
2022-12-27T02:19:57.763Z,14.32
2022-12-27T02:20:08.755Z,14.32
2022-12-27T02:20:19.735Z,14.32
2022-12-27T02:20:30.742Z,14.30
2022-12-27T02:20:41.753Z,14.32
2022-12-27T02:20:52.728Z,14.32
2022-12-27T02:21:03.730Z,14.33
2022-12-27T02:21:14.719Z,14.32
2022-12-27T02:21:25.732Z,14.32
2022-12-27T02:21:36.710Z,14.33
2022-12-27T02:21:47.793Z,14.30
2022-12-27T02:21:59.732Z,14.33
2022-12-27T02:22:10.759Z,14.32
2022-12-27T02:22:21.757Z,14.32
2022-12-27T02:22:32.765Z,14.32
2022-12-27T02:22:44.739Z,14.32
2022-12-27T02:22:55.727Z,14.30
2022-12-27T02:23:06.714Z,14.32
2022-12-27T02:23:17.727Z,14.33
2022-12-27T02:23:28.717Z,14.32
2022-12-27T02:23:40.227Z,14.32
2022-12-27T02:23:51.750Z,14.32
2022-12-27T02:24:02.711Z,14.32
2022-12-27T02:24:13.760Z,14.32
2022-12-27T02:24:24.754Z,14.33
2022-12-27T02:24:36.761Z,14.33
2022-12-27T02:24:48.751Z,14.33
2022-12-27T02:24:59.760Z,14.32
2022-12-27T02:25:10.728Z,14.32
2022-12-27T02:25:21.728Z,14.32
2022-12-27T02:25:32.729Z,14.32
2022-12-27T02:25:43.740Z,14.32
2022-12-27T02:25:54.736Z,14.32
2022-12-27T02:26:05.716Z,14.32
2022-12-27T02:26:16.711Z,14.32
2022-12-27T02:26:27.724Z,14.32
2022-12-27T02:26:38.729Z,14.32
2022-12-27T02:26:49.727Z,14.33
2022-12-27T02:27:00.724Z,14.32
2022-12-27T02:27:11.726Z,14.33
2022-12-27T02:27:22.723Z,14.33
2022-12-27T02:27:33.798Z,14.32
2022-12-27T02:27:45.771Z,14.33
2022-12-27T02:27:56.771Z,14.32
2022-12-27T02:28:07.736Z,14.32
2022-12-27T02:28:18.745Z,14.33
2022-12-27T02:28:29.732Z,14.30
2022-12-27T02:28:40.713Z,14.30
2022-12-27T02:28:51.812Z,14.33
2022-12-27T02:29:03.763Z,14.32
2022-12-27T02:29:14.781Z,14.32